Station info - map view · info · telemetry · weather · raw · status · beacons · messages · bulletins · browse · moving · my account
Callsign, ship name or locator: Clear       
It is possible to search using wildcards (*?) after a prefix. Example: OH*
APRS station K0GWT-9 - show graphs
Map loading...
Comment: 146.520MHz Zoom Zoom
Mic-E message: En route
Location: 36°54.92' N 76°07.47' W - locator FM16WV59BQ - show map - static map
9.2 miles Northwest bearing 298° from Virginia Beach, City of Virginia Beach, Virginia, United States [?]
10.1 miles Northeast bearing 62° from Norfolk, City of Norfolk, Virginia, United States
Last position: 2021-01-15 18:16:14 EST (2d 5h42m ago)
2021-01-15 18:16:14 EST local time at Virginia Beach, United States [?]
Altitude: -20 ft
Course: 117°
Speed: 14 MPH
Device: Yaesu: FTM-400DR (rig)
Last path: K0GWT-9>SV5T9R via WIDE1-1,WIDE2-1,qAR,K5CVN-5 (good)
Positions stored: 15768
Packet rate: 54 seconds between packets on average during 2260 seconds.
Other SSIDs: K0GWT K0GWT-10 K0GWT-7 K0GWT-G K0GWT-N
Stations near current position of K0GWT-9 - show more
callsign distance last heard - EST      callsign distance last heard - EST
K5CVN-51.2 miles 238°2021-01-17 23:58:30 KN4FXC-71.3 miles 244°2021-01-04 00:14:17
KF4FRK-71.7 miles 242°2020-12-30 16:10:24 KX4GI2.0 miles 201°2021-01-17 10:03:54
KN4RQS3.5 miles 182°2020-12-30 13:54:20 N4CFM3.5 miles 97°2020-12-26 21:22:24
N4CFM B3.5 miles 97°2021-01-17 22:34:19 N4CFM-B3.5 miles 97°2021-01-17 22:34:29
N4CFM-93.5 miles 97°2021-01-07 15:12:38 N4TRQ-123.9 miles 214°2021-01-17 17:46:29
N4TRQ-53.9 miles 215°2021-01-17 23:55:27 N4TRQ-33.9 miles 215°2021-01-06 02:02:00
N4TRQ3.9 miles 215°2021-01-17 13:36:42 N4TRQ-93.9 miles 215°2020-12-27 18:34:23
W4NMH4.5 miles 273°2021-01-14 21:32:24 EW43505.2 miles 250°2021-01-17 23:45:01
K4FML-95.2 miles 160°2021-01-17 13:24:22 DW72045.6 miles 274°2021-01-17 23:53:16
WB4BAX-N5.6 miles 274°2021-01-17 23:45:57 K4VBX5.6 miles 110°2021-01-17 23:49:57
Stations which heard K0GWT-9 directly on radio –
callsign pkts first heard - EST last heard longest (tx => rx) longest at - EST
W3UD-3 6 2021-01-08 20:27:12 2021-01-08 20:51:52 FM29HR > FM29CQ 21.2 miles 267° 2021-01-08 20:27:12
N2MH-15 10 2021-01-08 17:50:49 2021-01-08 18:49:52 FN30AR > FN20UT 17.3 miles 286° 2021-01-08 17:50:49
N3KTX-8 1 2021-01-08 23:00:28 2021-01-08 23:00:28 FM28FJ > FM28LK 28.0 miles 86° 2021-01-08 23:00:28
N3XJT-1 13 2021-01-08 20:34:33 2021-01-08 21:15:44 FM29GQ > FM29AN 26.6 miles 254° 2021-01-08 20:34:33
K2GE-15 1 2021-01-08 19:21:16 2021-01-08 19:21:16 FN20SJ > FN20UG 10.8 miles 144° 2021-01-08 19:21:16
K3TU 2 2021-01-08 20:02:35 2021-01-08 20:06:19 FM29MW > FM29KX 10.8 miles 293° 2021-01-08 20:06:19
W2AEE 10 2021-01-08 17:23:33 2021-01-08 18:11:11 FN30DS > FN30AT 13.9 miles 282° 2021-01-08 17:23:33
K2YYD-3 2 2021-01-08 13:40:46 2021-01-08 17:09:25 FN30HS > FN30FS 5.3 miles 296° 2021-01-08 13:40:46
KB4ZIN-5 19 2021-01-09 01:09:38 2021-01-14 06:56:57 FM16XU > FM17PG 48.6 miles 307° 2021-01-12 17:07:33
K2GE-13 2 2021-01-08 19:08:08 2021-01-08 19:19:16 FN20UN > FN20UK 6.7 miles 194° 2021-01-08 19:08:08
N3FCX 1 2021-01-08 20:06:31 2021-01-08 20:06:31 FM29LU > FM29IV 15.5 miles 277° 2021-01-08 20:06:31
KC2QVT-15 5 2021-01-08 19:36:36 2021-01-08 19:56:34 FN20QE > FM29QX 16.2 miles 190° 2021-01-08 19:36:36
WB2ZII-15 2 2021-01-08 17:57:17 2021-01-08 18:00:06 FN30AQ > FN31CG 40.8 miles 11° 2021-01-08 18:00:06
K4BW-12 24 2021-01-08 23:35:38 2021-01-13 05:07:44 FM26AT > FM27DR 66.4 miles 15° 2021-01-13 05:07:44
K4BW-13 23 2021-01-09 00:24:04 2021-01-14 06:56:46 FM26AT > FM27AI 39.0 miles 4° 2021-01-13 06:06:36
KB1EJH-1 6 2021-01-08 22:16:52 2021-01-08 22:47:05 FM28FV > FM28HQ 16.9 miles 145° 2021-01-08 22:16:52
KB1EJH-15 16 2021-01-08 21:33:16 2021-01-08 22:31:57 FM29GD > FM28HU 21.1 miles 162° 2021-01-08 21:33:16
KE4KDY-5 452 2021-01-09 01:13:56 2021-01-15 18:14:30 FM17XC > FM16WS 22.1 miles 194° 2021-01-09 01:13:56
WB2ZII-13 1 2021-01-08 17:10:40 2021-01-08 17:10:40 FN30FS > FN31FH 36.9 miles 357° 2021-01-08 17:10:40
KF4HJW-12 4 2021-01-09 01:16:02 2021-01-12 17:47:42 FM17XB > FM17SB 24.8 miles 271° 2021-01-09 01:16:02
KQ4ET-5 217 2021-01-09 01:43:21 2021-01-15 18:12:35 FM16VV > FM16XU 11.0 miles 117° 2021-01-14 06:47:34
CLAYTN 6 2021-01-08 20:04:35 2021-01-08 20:14:39 FM29MV > FM29KQ 16.4 miles 201° 2021-01-08 20:08:51
N3XKU-7 1 2021-01-08 19:44:34 2021-01-08 19:44:34 FN20PC > FN20NE 8.1 miles 297° 2021-01-08 19:44:34
KD4YLX-15 24 2021-01-09 01:53:24 2021-01-13 05:08:53 FM26AT > FM26AV 6.6 miles 2° 2021-01-12 08:19:04
N4WFP-5 44 2021-01-09 01:23:28 2021-01-15 18:14:51 FM16XV > FM16UW 11.1 miles 288° 2021-01-12 19:43:04
W4HZL-1 13 2021-01-09 00:51:52 2021-01-13 11:54:35 FM16XU > FM17UI 35.7 miles 337° 2021-01-13 04:55:53
MATWAN 13 2021-01-08 18:32:46 2021-01-08 19:54:03 FN20XO > FN20VJ 17.1 miles 214° 2021-01-08 18:32:46
K2GE-14 2 2021-01-08 19:17:15 2021-01-08 19:25:15 FN20SI > FN20TK 7.4 miles 48° 2021-01-08 19:25:15
KC2FD 5 2021-01-08 07:13:19 2021-01-08 14:12:01 FN30MS > FN30LV 8.4 miles 328° 2021-01-08 11:31:59
AL0Y-10 6 2021-01-08 17:57:44 2021-01-08 18:49:54 FN20XO > FN20VV 20.4 miles 338° 2021-01-08 18:29:55
KD4NFI-2 6 2021-01-08 23:53:33 2021-01-09 00:06:30 FM27FU > FM27ET 7.5 miles 229° 2021-01-08 23:53:33
KC2SYF-10 9 2021-01-08 11:47:58 2021-01-08 13:31:19 FN30HS > FN30HQ 7.2 miles 149° 2021-01-08 13:12:57
NY3PD-10 4 2021-01-08 18:22:38 2021-01-08 18:27:04 FN20XP > FN20XO 1.5 miles 183° 2021-01-08 18:22:38
NO2C-10 30 2021-01-08 07:51:36 2021-01-08 16:51:56 FN30HS > FN30JS 12.4 miles 90° 2021-01-08 13:28:50
K2TAX-2 1 2021-01-08 11:50:10 2021-01-08 11:50:10 FN30HR > FN30HQ 3.7 miles 212° 2021-01-08 11:50:10
K4VBX 783 2021-01-09 01:09:36 2021-01-15 18:15:41 FM27AC > FM16XV 16.2 miles 192° 2021-01-09 01:09:36
W2MMD-13 4 2021-01-08 20:09:42 2021-01-08 20:36:33 FM29FQ > FM29JR 16.6 miles 84° 2021-01-08 20:36:33
N3TTT-1 5 2021-01-08 21:29:37 2021-01-08 21:57:20 FM29GD > FM29ED 5.3 miles 256° 2021-01-08 21:31:48
AC2KQ-10 12 2021-01-08 11:52:12 2021-01-08 17:08:35 FN30IT > FN30GP 16.3 miles 229° 2021-01-08 16:53:56
K2IE-15 2 2021-01-08 18:42:16 2021-01-08 19:07:05 FN20VP > FN20VJ 17.1 miles 179° 2021-01-08 18:42:16
KD2EDX-11 2 2021-01-08 17:16:48 2021-01-08 17:19:20 FN30ES > FN30ER 3.2 miles 162° 2021-01-08 17:19:20
KD2EDX-9 1 2021-01-08 17:20:02 2021-01-08 17:20:02 FN30ES > FN30ER 3.1 miles 151° 2021-01-08 17:20:02
KM2ARC-15 9 2021-01-08 13:29:12 2021-01-08 17:24:06 FN30HS > FN30FR 9.9 miles 249° 2021-01-08 13:29:12
KC2ZQO-10 2 2021-01-08 14:13:44 2021-01-08 16:40:41 FN30LT > FN30LU 1.1 miles 1° 2021-01-08 14:13:44
W2PW-10 17 2021-01-08 07:17:40 2021-01-08 16:35:56 FN30MS > FN30LR 4.3 miles 230° 2021-01-08 08:16:19
KC2GOW-1 12 2021-01-08 18:29:27 2021-01-08 19:21:55 FN20UN > FN20WO 8.5 miles 69° 2021-01-08 19:06:46
K5CVN-5 15 2021-01-09 01:32:40 2021-01-15 18:16:14 FM16WV > FM16WV 1.5 miles 256° 2021-01-14 21:33:59
N2WH 1 2021-01-08 19:01:56 2021-01-08 19:01:56 FN20UN > FN20TV 25.2 miles 342° 2021-01-08 19:01:56

Only position packets which were originated by the station are shown here. The range statistics show some extra long hops, because some digipeaters do not correctly add themselves to the digipeater path. Please check the raw packets.
About this site
This page shows real-time information collected from the Automatic Position Reporting System Internet network (APRS-IS). APRS is used by amateur (ham) radio operators to transmit real-time position information, weather data, telemetry and messages over the radio. A vehicle equipped with a GPS receiver, a VHF transmitter or HF transceiver and a small computer device called a tracker transmits it's location, speed and course in a small data packet, which is then received by a nearby iGate receiving site which forwards the packet on the Internet. Systems connected to the Internet can send information on the APRS-IS without a radio transmitter, or collect and display information transmitted anywhere in the world.
User guide · FAQ · Blog · Discussion group · Linking to aprs.fi · AIS sites · Service status · Database statistics · Advertising on aprs.fi · Technical details · API · Change log · Planned changes · Credits and thanks · Terms Of Service · iPhone/iPad APRS